Archiv-/Tagesdaten

--Timestamp---	Temp	Chill	HIndex	Humid	Dewpt	 Wind 	HiWind	WindDir	Rain 	Barom	Solar	 ET  	 UV 
--------------	----	-----	------	-----	-----	------	------	-------	-----	-----	-----	-----	----
20100122 00:00	-1.3	-1.3	-1.3	88	-3.0	2	3	90	0.0	1024.8	0	0.000	0.0
20100122 00:05	-1.3	-1.3	-1.3	88	-3.0	2	5	90	0.0	1024.8	0	0.000	0.0
20100122 00:10	-1.3	-1.3	-1.3	88	-3.0	2	5	90	0.0	1024.6	0	0.000	0.0
20100122 00:15	-1.3	-1.3	-1.3	88	-3.0	0	3	90	0.0	1024.6	0	0.000	0.0
20100122 00:20	-1.2	-1.2	-1.2	88	-3.0	0	2	90	0.0	1024.7	0	0.000	0.0
20100122 00:25	-1.2	-1.2	-1.2	88	-2.9	0	0	-100000	0.0	1024.6	0	0.000	0.0
20100122 00:30	-1.1	-1.1	-1.1	88	-2.8	0	0	-100000	0.0	1024.6	0	0.000	0.0
20100122 00:35	-1.1	-1.1	-1.1	88	-2.8	0	3	90	0.0	1024.5	0	0.000	0.0
20100122 00:40	-1.1	-1.1	-1.1	88	-2.8	2	5	90	0.0	1024.6	0	0.000	0.0
20100122 00:45	-1.1	-1.1	-1.1	88	-2.8	2	3	90	0.0	1024.5	0	0.000	0.0
20100122 00:50	-1.1	-1.1	-1.1	88	-2.8	0	2	90	0.0	1024.6	0	0.000	0.0
20100122 00:55	-1.1	-1.1	-1.1	88	-2.8	0	2	90	0.0	1024.5	0	0.000	0.0
20100122 01:00	-1.1	-1.1	-1.1	88	-2.8	2	5	90	0.0	1024.6	0	0.000	0.0
20100122 01:05	-1.1	-1.1	-1.1	88	-2.8	2	3	90	0.0	1024.5	0	0.000	0.0
20100122 01:10	-1.1	-1.1	-1.1	88	-2.8	2	5	90	0.0	1024.6	0	0.000	0.0
20100122 01:15	-1.1	-1.1	-1.1	88	-2.8	3	6	90	0.0	1024.6	0	0.000	0.0
20100122 01:20	-1.2	-1.2	-1.2	88	-2.9	2	5	90	0.0	1024.6	0	0.000	0.0
20100122 01:25	-1.2	-1.2	-1.2	88	-2.9	2	3	90	0.0	1024.5	0	0.000	0.0
20100122 01:30	-1.2	-1.2	-1.2	89	-2.7	0	3	90	0.0	1024.5	0	0.000	0.0
20100122 01:35	-1.1	-1.1	-1.1	89	-2.7	0	2	90	0.0	1024.5	0	0.000	0.0
20100122 01:40	-1.1	-1.1	-1.1	89	-2.7	2	3	90	0.0	1024.6	0	0.000	0.0
20100122 01:45	-1.2	-1.2	-1.2	89	-2.7	3	6	90	0.0	1024.6	0	0.000	0.0
20100122 01:50	-1.2	-1.2	-1.2	89	-2.7	2	5	90	0.0	1024.5	0	0.000	0.0
20100122 01:55	-1.2	-1.2	-1.2	89	-2.7	0	5	90	0.0	1024.6	0	0.000	0.0
20100122 02:00	-1.2	-1.2	-1.2	89	-2.7	2	3	90	0.0	1024.7	0	0.000	0.0
20100122 02:05	-1.2	-1.2	-1.2	89	-2.7	2	5	90	0.0	1024.7	0	0.000	0.0
20100122 02:10	-1.2	-1.2	-1.2	89	-2.8	3	5	90	0.0	1024.7	0	0.000	0.0
20100122 02:15	-1.2	-1.2	-1.2	89	-2.8	3	6	90	0.0	1024.7	0	0.000	0.0
20100122 02:20	-1.2	-1.2	-1.2	89	-2.8	2	5	90	0.0	1024.8	0	0.000	0.0
20100122 02:25	-1.3	-1.3	-1.3	89	-2.9	3	6	90	0.0	1024.8	0	0.000	0.0
20100122 02:30	-1.3	-1.3	-1.3	89	-2.9	3	6	90	0.0	1024.7	0	0.000	0.0
20100122 02:35	-1.3	-1.3	-1.3	89	-2.9	2	5	90	0.0	1024.8	0	0.000	0.0
20100122 02:40	-1.3	-1.3	-1.3	89	-2.9	2	6	90	0.0	1024.8	0	0.000	0.0
20100122 02:45	-1.3	-1.3	-1.3	89	-2.9	3	8	90	0.0	1024.8	0	0.000	0.0
20100122 02:50	-1.3	-1.3	-1.3	89	-2.9	2	5	90	0.0	1024.8	0	0.000	0.0
20100122 02:55	-1.3	-1.3	-1.3	89	-2.9	2	5	90	0.0	1024.9	0	0.000	0.0
20100122 03:00	-1.3	-1.3	-1.3	88	-3.0	2	5	90	0.0	1024.9	0	0.000	0.0
20100122 03:05	-1.3	-1.3	-1.3	88	-3.0	2	5	90	0.0	1024.9	0	0.000	0.0
20100122 03:10	-1.3	-1.3	-1.3	88	-3.0	3	6	90	0.0	1024.9	0	0.000	0.0
20100122 03:15	-1.3	-1.3	-1.3	88	-3.0	3	8	90	0.0	1024.9	0	0.000	0.0
20100122 03:20	-1.3	-1.3	-1.3	88	-3.0	3	6	90	0.0	1024.9	0	0.000	0.0
20100122 03:25	-1.3	-1.3	-1.3	88	-3.0	3	5	90	0.0	1024.9	0	0.000	0.0
20100122 03:30	-1.3	-1.3	-1.3	88	-3.0	3	8	90	0.0	1024.9	0	0.000	0.0
20100122 03:35	-1.3	-1.3	-1.3	88	-3.0	5	10	90	0.0	1024.8	0	0.000	0.0
20100122 03:40	-1.3	-1.3	-1.3	88	-3.1	5	10	90	0.0	1024.8	0	0.000	0.0
20100122 03:45	-1.3	-1.3	-1.3	88	-3.1	3	6	90	0.0	1024.8	0	0.000	0.0
20100122 03:50	-1.3	-1.3	-1.3	88	-3.1	5	10	90	0.0	1024.7	0	0.000	0.0
20100122 03:55	-1.3	-1.3	-1.3	89	-2.9	2	6	90	0.0	1024.8	0	0.000	0.0
20100122 04:00	-1.3	-1.3	-1.3	89	-2.9	2	5	90	0.0	1024.8	0	0.000	0.0
20100122 04:05	-1.3	-1.3	-1.3	89	-2.9	2	6	90	0.0	1024.8	0	0.000	0.0
20100122 04:10	-1.3	-1.3	-1.3	89	-2.9	3	5	90	0.0	1024.9	0	0.000	0.0
20100122 04:15	-1.3	-1.3	-1.3	89	-2.9	3	6	90	0.0	1024.9	0	0.000	0.0
20100122 04:20	-1.3	-1.3	-1.3	89	-2.9	3	8	90	0.0	1025.0	0	0.000	0.0
20100122 04:25	-1.3	-1.3	-1.3	89	-2.9	3	6	90	0.0	1025.1	0	0.000	0.0
20100122 04:30	-1.4	-1.4	-1.4	89	-3.0	5	8	90	0.0	1025.1	0	0.000	0.0
20100122 04:35	-1.4	-3.8	-1.4	89	-3.0	6	8	90	0.0	1025.1	0	0.000	0.0
20100122 04:40	-1.4	-1.4	-1.4	89	-3.0	3	6	90	0.0	1025.2	0	0.000	0.0
20100122 04:45	-1.4	-1.4	-1.4	89	-3.0	3	6	90	0.0	1025.2	0	0.000	0.0
20100122 04:50	-1.4	-1.4	-1.4	89	-3.0	2	5	90	0.0	1025.2	0	0.000	0.0
20100122 04:55	-1.4	-1.4	-1.4	89	-3.0	3	6	90	0.0	1025.2	0	0.000	0.0
20100122 05:00	-1.4	-1.4	-1.4	89	-3.0	3	6	90	0.0	1025.3	0	0.000	0.0
20100122 05:05	-1.4	-1.4	-1.4	88	-3.2	3	8	90	0.0	1025.2	0	0.000	0.0
20100122 05:10	-1.4	-1.4	-1.4	89	-3.0	3	8	90	0.0	1025.2	0	0.000	0.0
20100122 05:15	-1.5	-1.5	-1.5	89	-3.1	3	10	90	0.0	1025.2	0	0.000	0.0
20100122 05:20	-1.4	-1.4	-1.4	88	-3.2	3	10	90	0.0	1025.2	0	0.000	0.0
20100122 05:25	-1.5	-1.5	-1.5	88	-3.2	5	10	112	0.0	1025.2	0	0.000	0.0
20100122 05:30	-1.5	-1.5	-1.5	89	-3.1	5	6	112	0.0	1025.2	0	0.000	0.0
20100122 05:35	-1.4	-1.4	-1.4	89	-3.0	3	8	112	0.0	1025.2	0	0.000	0.0
20100122 05:40	-1.4	-1.4	-1.4	89	-3.0	3	8	112	0.0	1025.2	0	0.000	0.0
20100122 05:45	-1.4	-1.4	-1.4	89	-3.0	3	8	112	0.0	1025.2	0	0.000	0.0
20100122 05:50	-1.4	-1.4	-1.4	89	-3.0	3	6	112	0.0	1025.2	0	0.000	0.0
20100122 05:55	-1.4	-1.4	-1.4	89	-3.0	2	5	112	0.0	1025.2	0	0.000	0.0
20100122 06:00	-1.4	-1.4	-1.4	89	-3.0	3	8	90	0.0	1025.2	0	0.000	0.0
20100122 06:05	-1.4	-1.4	-1.4	89	-3.0	3	5	90	0.0	1025.3	0	0.000	0.0
20100122 06:10	-1.4	-1.4	-1.4	89	-3.0	3	8	90	0.0	1025.3	0	0.000	0.0
20100122 06:15	-1.4	-1.4	-1.4	89	-3.0	5	10	90	0.0	1025.3	0	0.000	0.0
20100122 06:20	-1.5	-1.5	-1.5	89	-3.1	5	8	68	0.0	1025.5	0	0.000	0.0
20100122 06:25	-1.5	-1.5	-1.5	89	-3.1	3	6	68	0.0	1025.4	0	0.000	0.0
20100122 06:30	-1.5	-1.5	-1.5	89	-3.1	5	8	68	0.0	1025.4	0	0.000	0.0
20100122 06:35	-1.6	-1.6	-1.6	89	-3.1	5	10	68	0.0	1025.5	0	0.000	0.0
20100122 06:40	-1.6	-1.6	-1.6	89	-3.1	3	6	68	0.0	1025.5	0	0.000	0.0
20100122 06:45	-1.6	-1.6	-1.6	89	-3.1	3	8	68	0.0	1025.5	0	0.000	0.0
20100122 06:50	-1.6	-1.6	-1.6	89	-3.2	3	6	68	0.0	1025.5	0	0.000	0.0
20100122 06:55	-1.6	-1.6	-1.6	89	-3.2	3	6	68	0.0	1025.5	0	0.000	0.0
20100122 07:00	-1.6	-1.6	-1.6	89	-3.2	2	5	68	0.0	1025.5	0	0.000	0.0
20100122 07:05	-1.6	-1.6	-1.6	89	-3.2	2	5	68	0.0	1025.5	0	0.000	0.0
20100122 07:10	-1.6	-1.6	-1.6	89	-3.2	2	3	68	0.0	1025.5	0	0.000	0.0
20100122 07:15	-1.6	-1.6	-1.6	89	-3.2	2	6	68	0.0	1025.5	0	0.000	0.0
20100122 07:20	-1.6	-1.6	-1.6	89	-3.2	2	5	68	0.0	1025.5	0	0.000	0.0
20100122 07:25	-1.6	-1.6	-1.6	89	-3.2	2	5	68	0.0	1025.5	0	0.000	0.0
20100122 07:30	-1.6	-1.6	-1.6	89	-3.2	2	5	68	0.0	1025.4	0	0.000	0.0
20100122 07:35	-1.6	-1.6	-1.6	89	-3.2	3	6	68	0.0	1025.5	0	0.000	0.0
20100122 07:40	-1.7	-1.7	-1.7	89	-3.2	5	8	68	0.0	1025.6	0	0.000	0.0
20100122 07:45	-1.7	-1.7	-1.7	89	-3.2	5	8	68	0.0	1025.6	0	0.000	0.0
20100122 07:50	-1.7	-1.7	-1.7	89	-3.2	5	8	68	0.0	1025.5	0	0.000	0.0
20100122 07:55	-1.7	-1.7	-1.7	89	-3.3	3	6	68	0.0	1025.6	0	0.000	0.0
20100122 08:00	-1.7	-1.7	-1.7	89	-3.3	2	5	68	0.0	1025.6	0	0.000	0.0
20100122 08:05	-1.7	-1.7	-1.7	89	-3.3	2	5	68	0.0	1025.6	0	0.000	0.0
20100122 08:10	-1.7	-1.7	-1.7	89	-3.3	2	5	68	0.0	1025.6	2	0.000	0.0
20100122 08:15	-1.7	-1.7	-1.7	89	-3.2	2	5	68	0.0	1025.7	5	0.000	0.0
20100122 08:20	-1.7	-1.7	-1.7	89	-3.2	2	3	68	0.0	1025.7	5	0.000	0.0
20100122 08:25	-1.7	-1.7	-1.7	89	-3.2	2	5	68	0.0	1025.6	7	0.000	0.0
20100122 08:30	-1.7	-1.7	-1.7	89	-3.2	0	2	68	0.0	1025.5	11	0.000	0.0
20100122 08:35	-1.7	-1.7	-1.7	89	-3.2	3	5	68	0.0	1025.6	14	0.000	0.0
20100122 08:40	-1.7	-1.7	-1.7	89	-3.2	0	2	68	0.0	1025.6	20	0.000	0.0
20100122 08:45	-1.6	-1.6	-1.6	89	-3.2	0	5	68	0.0	1025.5	22	0.000	0.0
20100122 08:50	-1.6	-1.6	-1.6	89	-3.1	2	5	68	0.0	1025.7	25	0.000	0.0
20100122 08:55	-1.5	-1.5	-1.5	89	-3.1	2	5	68	0.0	1025.8	27	0.000	0.0
20100122 09:00	-1.6	-1.6	-1.6	89	-3.1	5	6	68	0.0	1025.8	33	0.000	0.0
20100122 09:05	-1.6	-1.6	-1.6	89	-3.1	3	6	45	0.0	1025.8	33	0.000	0.0
20100122 09:10	-1.6	-1.6	-1.6	89	-3.2	5	8	45	0.0	1025.8	40	0.000	0.0
20100122 09:15	-1.6	-1.6	-1.6	89	-3.2	3	6	45	0.0	1025.8	34	0.000	0.0
20100122 09:20	-1.6	-1.6	-1.6	89	-3.1	2	5	45	0.0	1025.9	40	0.000	0.0
20100122 09:25	-1.6	-1.6	-1.6	89	-3.1	3	5	45	0.0	1025.9	44	0.000	0.0
20100122 09:30	-1.6	-1.6	-1.6	89	-3.1	3	6	45	0.0	1025.9	45	0.000	0.0
20100122 09:35	-1.5	-1.5	-1.5	89	-3.1	2	5	45	0.0	1025.9	46	0.000	0.0
20100122 09:40	-1.5	-1.5	-1.5	89	-3.1	2	5	45	0.0	1025.9	46	0.000	0.0
20100122 09:45	-1.4	-1.4	-1.4	89	-3.0	0	3	45	0.0	1025.9	50	0.000	0.0
20100122 09:50	-1.4	-1.4	-1.4	89	-3.0	3	6	45	0.0	1025.9	56	0.000	0.0
20100122 09:55	-1.4	-1.4	-1.4	89	-3.0	3	5	45	0.0	1025.9	54	0.000	0.0
20100122 10:00	-1.4	-1.4	-1.4	89	-3.0	2	5	45	0.0	1025.8	56	0.025	0.0
20100122 10:05	-1.4	-1.4	-1.4	89	-3.0	2	5	45	0.0	1025.7	58	0.000	0.0
20100122 10:10	-1.4	-1.4	-1.4	89	-3.0	3	6	45	0.0	1025.7	66	0.000	0.0
20100122 10:15	-1.3	-1.3	-1.3	89	-2.9	2	6	45	0.0	1025.8	68	0.000	0.0
20100122 10:20	-1.3	-1.3	-1.3	89	-2.9	3	6	45	0.0	1025.8	71	0.000	0.0
20100122 10:25	-1.3	-1.3	-1.3	89	-2.9	5	10	45	0.0	1025.8	74	0.000	0.0
20100122 10:30	-1.3	-1.3	-1.3	88	-3.1	5	8	45	0.0	1025.8	78	0.000	0.0
20100122 10:35	-1.3	-1.3	-1.3	89	-2.9	3	10	45	0.0	1025.9	77	0.000	0.0
20100122 10:40	-1.3	-1.3	-1.3	89	-2.9	5	10	68	0.0	1026.0	75	0.000	0.0
20100122 10:45	-1.2	-1.2	-1.2	89	-2.8	3	8	68	0.0	1026.0	81	0.000	0.0
20100122 10:50	-1.2	-1.2	-1.2	89	-2.7	5	8	68	0.0	1026.0	78	0.000	0.0
20100122 10:55	-1.2	-1.2	-1.2	89	-2.7	5	8	68	0.0	1026.0	79	0.000	0.0
20100122 11:00	-1.2	-3.5	-1.2	88	-2.9	6	11	68	0.0	1026.0	81	0.025	0.0
20100122 11:05	-1.2	-1.2	-1.2	89	-2.7	5	10	68	0.0	1025.9	86	0.000	0.0
20100122 11:10	-1.2	-1.2	-1.2	89	-2.8	5	8	68	0.0	1025.9	87	0.000	0.0
20100122 11:15	-1.2	-1.2	-1.2	89	-2.7	5	8	68	0.0	1025.9	90	0.000	0.0
20100122 11:20	-1.1	-1.1	-1.1	89	-2.7	5	8	45	0.0	1025.9	88	0.000	0.0
20100122 11:25	-1.2	-1.2	-1.2	89	-2.7	5	10	45	0.0	1025.8	84	0.000	0.0
20100122 11:30	-1.2	-1.2	-1.2	89	-2.7	3	6	45	0.0	1025.8	84	0.000	0.0
20100122 11:35	-1.2	-1.2	-1.2	89	-2.7	3	8	45	0.0	1025.8	86	0.000	0.0
20100122 11:40	-1.2	-1.2	-1.2	89	-2.7	5	8	45	0.0	1025.8	86	0.000	0.0
20100122 11:45	-1.2	-1.2	-1.2	89	-2.7	5	8	45	0.0	1025.8	84	0.000	0.0
20100122 11:50	-1.1	-1.1	-1.1	89	-2.7	3	6	45	0.0	1025.7	85	0.000	0.0
20100122 11:55	-1.1	-1.1	-1.1	89	-2.6	5	6	45	0.0	1025.7	86	0.000	0.0
20100122 12:00	-1.1	-1.1	-1.1	88	-2.8	5	8	45	0.0	1025.7	84	0.025	0.0
20100122 12:05	-1.1	-1.1	-1.1	88	-2.8	5	6	45	0.0	1025.6	84	0.000	0.0
20100122 12:10	-1.1	-1.1	-1.1	88	-2.8	5	6	45	0.0	1025.7	83	0.000	0.0
20100122 12:15	-1.1	-1.1	-1.1	89	-2.6	3	6	45	0.0	1025.6	83	0.000	0.0
20100122 12:20	-1.1	-1.1	-1.1	89	-2.6	3	6	45	0.0	1025.6	87	0.000	0.0
20100122 12:25	-1.1	-1.1	-1.1	89	-2.6	3	5	45	0.0	1025.6	86	0.000	0.0
20100122 12:30	-1.1	-1.1	-1.1	88	-2.8	3	5	45	0.0	1025.5	88	0.000	0.0
20100122 12:35	-1.1	-1.1	-1.1	89	-2.6	2	3	45	0.0	1025.4	84	0.000	0.0
20100122 12:40	-1.0	-1.0	-1.0	89	-2.6	3	8	45	0.0	1025.5	84	0.000	0.0
20100122 12:45	-1.0	-1.0	-1.0	88	-2.7	5	8	45	0.0	1025.4	83	0.000	0.0
20100122 12:50	-1.0	-1.0	-1.0	88	-2.7	5	8	45	0.0	1025.4	86	0.000	0.0
20100122 12:55	-1.1	-3.4	-1.1	88	-2.8	6	11	22	0.0	1025.3	86	0.000	0.0
20100122 13:00	-1.1	-1.1	-1.1	88	-2.8	5	10	22	0.0	1025.3	88	0.025	0.0
20100122 13:05	-1.1	-1.1	-1.1	88	-2.8	5	8	45	0.0	1025.3	86	0.000	0.0
20100122 13:10	-1.1	-1.1	-1.1	88	-2.8	5	8	45	0.0	1025.2	94	0.000	0.0
20100122 13:15	-1.0	-1.0	-1.0	88	-2.7	3	8	22	0.0	1025.2	98	0.000	0.0
20100122 13:20	-1.0	-1.0	-1.0	88	-2.7	5	8	45	0.0	1025.2	92	0.000	0.0
20100122 13:25	-1.0	-1.0	-1.0	88	-2.7	5	8	45	0.0	1025.2	94	0.000	0.0
20100122 13:30	-1.0	-3.3	-1.0	87	-2.9	6	10	22	0.0	1025.2	101	0.000	0.0
20100122 13:35	-1.1	-1.1	-1.1	87	-2.9	5	8	22	0.0	1025.1	98	0.000	0.0
20100122 13:40	-1.0	-1.0	-1.0	88	-2.7	5	8	22	0.0	1025.0	94	0.000	0.0
20100122 13:45	-1.1	-1.1	-1.1	87	-2.9	5	8	22	0.0	1025.1	92	0.000	0.0
20100122 13:50	-1.1	-3.4	-1.1	87	-2.9	6	10	22	0.0	1025.0	90	0.000	0.0
20100122 13:55	-1.1	-3.5	-1.1	87	-3.0	6	10	22	0.0	1025.1	88	0.000	0.0
20100122 14:00	-1.1	-1.1	-1.1	87	-2.9	5	8	22	0.0	1025.0	85	0.025	0.0
20100122 14:05	-1.1	-3.5	-1.1	87	-3.0	6	10	22	0.0	1025.0	86	0.000	0.0
20100122 14:10	-1.1	-1.1	-1.1	87	-3.0	5	8	22	0.0	1024.9	89	0.000	0.0
20100122 14:15	-1.1	-1.1	-1.1	87	-3.0	5	8	22	0.0	1025.0	86	0.000	0.0
20100122 14:20	-1.1	-1.1	-1.1	87	-3.0	5	10	22	0.0	1025.0	87	0.000	0.0
20100122 14:25	-1.1	-3.5	-1.1	87	-3.0	6	10	22	0.0	1025.0	80	0.000	0.0
20100122 14:30	-1.2	-3.5	-1.2	87	-3.0	6	10	22	0.0	1025.0	78	0.000	0.0
20100122 14:35	-1.2	-1.2	-1.2	87	-3.1	5	10	22	0.0	1025.1	78	0.000	0.0
20100122 14:40	-1.2	-1.2	-1.2	87	-3.1	5	10	22	0.0	1025.1	80	0.000	0.0
20100122 14:45	-1.3	-1.3	-1.3	86	-3.3	5	11	45	0.0	1025.1	84	0.000	0.0
20100122 14:50	-1.3	-3.7	-1.3	86	-3.4	6	10	22	0.0	1025.1	76	0.000	0.0
20100122 14:55	-1.3	-3.7	-1.3	87	-3.2	6	10	22	0.0	1025.1	66	0.000	0.0
20100122 15:00	-1.3	-1.3	-1.3	86	-3.4	5	10	22	0.0	1025.2	68	0.025	0.0
20100122 15:05	-1.4	-1.4	-1.4	86	-3.4	2	5	22	0.0	1025.3	59	0.000	0.0
20100122 15:10	-1.3	-1.3	-1.3	87	-3.2	3	8	45	0.0	1025.3	47	0.000	0.0
20100122 15:15	-1.3	-1.3	-1.3	87	-3.2	5	10	45	0.0	1025.3	42	0.000	0.0
20100122 15:20	-1.3	-3.7	-1.3	86	-3.4	6	10	68	0.0	1025.4	42	0.000	0.0
20100122 15:25	-1.3	-1.3	-1.3	86	-3.4	3	8	90	0.0	1025.5	45	0.000	0.0
20100122 15:30	-1.3	-1.3	-1.3	86	-3.3	3	10	90	0.0	1025.5	37	0.000	0.0
20100122 15:35	-1.3	-3.7	-1.3	86	-3.4	6	11	68	0.0	1025.6	33	0.000	0.0
20100122 15:40	-1.4	-1.4	-1.4	86	-3.5	3	6	68	0.0	1025.6	35	0.000	0.0
20100122 15:45	-1.5	-1.5	-1.5	85	-3.7	2	6	68	0.0	1025.8	39	0.000	0.0
20100122 15:50	-1.6	-1.6	-1.6	85	-3.7	2	5	68	0.0	1025.7	31	0.000	0.0
20100122 15:55	-1.6	-1.6	-1.6	86	-3.6	3	5	68	0.0	1025.8	25	0.000	0.0
20100122 16:00	-1.5	-1.5	-1.5	86	-3.5	3	8	68	0.0	1025.8	25	0.025	0.0
20100122 16:05	-1.5	-1.5	-1.5	86	-3.5	2	3	68	0.0	1025.9	22	0.000	0.0
20100122 16:10	-1.4	-1.4	-1.4	86	-3.5	0	3	68	0.0	1025.9	20	0.000	0.0
20100122 16:15	-1.4	-1.4	-1.4	86	-3.4	5	10	68	0.0	1025.9	13	0.000	0.0
20100122 16:20	-1.4	-1.4	-1.4	86	-3.4	3	6	68	0.0	1026.0	11	0.000	0.0
20100122 16:25	-1.4	-1.4	-1.4	86	-3.5	3	6	68	0.0	1026.0	9	0.000	0.0
20100122 16:30	-1.4	-1.4	-1.4	86	-3.5	3	8	68	0.0	1026.0	7	0.000	0.0
20100122 16:35	-1.4	-1.4	-1.4	86	-3.5	3	8	68	0.0	1026.1	7	0.000	0.0
20100122 16:40	-1.5	-1.5	-1.5	85	-3.7	5	8	68	0.0	1026.1	5	0.000	0.0
20100122 16:45	-1.4	-1.4	-1.4	86	-3.5	2	5	68	0.0	1026.1	4	0.000	0.0
20100122 16:50	-1.5	-1.5	-1.5	85	-3.7	5	8	68	0.0	1026.1	0	0.000	0.0
20100122 16:55	-1.5	-1.5	-1.5	86	-3.5	5	6	68	0.0	1026.1	0	0.000	0.0
20100122 17:00	-1.6	-1.6	-1.6	85	-3.7	3	6	68	0.0	1026.1	0	0.000	0.0
20100122 17:05	-1.6	-1.6	-1.6	86	-3.6	2	5	68	0.0	1026.1	0	0.000	0.0
20100122 17:10	-1.6	-1.6	-1.6	86	-3.6	3	6	68	0.0	1026.2	0	0.000	0.0
20100122 17:15	-1.5	-1.5	-1.5	86	-3.5	2	6	68	0.0	1026.2	0	0.000	0.0
20100122 17:20	-1.6	-1.6	-1.6	85	-3.7	3	6	68	0.0	1026.3	0	0.000	0.0
20100122 17:25	-1.6	-1.6	-1.6	85	-3.7	2	5	68	0.0	1026.3	0	0.000	0.0
20100122 17:30	-1.6	-1.6	-1.6	85	-3.7	0	2	68	0.0	1026.4	0	0.000	0.0
20100122 17:35	-1.6	-1.6	-1.6	85	-3.7	3	5	68	0.0	1026.4	0	0.000	0.0
20100122 17:40	-1.5	-1.5	-1.5	85	-3.7	2	5	68	0.0	1026.4	0	0.000	0.0
20100122 17:45	-1.5	-1.5	-1.5	86	-3.5	2	5	68	0.0	1026.4	0	0.000	0.0
20100122 17:50	-1.5	-1.5	-1.5	85	-3.7	0	2	68	0.0	1026.5	0	0.000	0.0
20100122 17:55	-1.5	-1.5	-1.5	86	-3.5	0	3	68	0.0	1026.5	0	0.000	0.0
20100122 18:00	-1.5	-1.5	-1.5	85	-3.7	3	8	68	0.0	1026.6	0	0.000	0.0
20100122 18:05	-1.5	-1.5	-1.5	85	-3.7	5	6	68	0.0	1026.6	0	0.000	0.0
20100122 18:10	-1.6	-1.6	-1.6	85	-3.7	5	6	68	0.0	1026.6	0	0.000	0.0
20100122 18:15	-1.6	-1.6	-1.6	85	-3.8	3	6	68	0.0	1026.6	0	0.000	0.0
20100122 18:20	-1.6	-1.6	-1.6	85	-3.8	2	5	68	0.0	1026.5	0	0.000	0.0
20100122 18:25	-1.6	-1.6	-1.6	85	-3.8	2	3	68	0.0	1026.6	0	0.000	0.0
20100122 18:30	-1.6	-1.6	-1.6	85	-3.8	0	0	-100000	0.0	1026.6	0	0.000	0.0
20100122 18:35	-1.6	-1.6	-1.6	85	-3.8	2	3	68	0.0	1026.6	0	0.000	0.0
20100122 18:40	-1.6	-1.6	-1.6	85	-3.7	3	8	68	0.0	1026.6	0	0.000	0.0
20100122 18:45	-1.6	-1.6	-1.6	85	-3.8	0	5	68	0.0	1026.7	0	0.000	0.0
20100122 18:50	-1.6	-1.6	-1.6	85	-3.8	2	5	68	0.0	1026.7	0	0.000	0.0
20100122 18:55	-1.6	-1.6	-1.6	85	-3.7	3	8	68	0.0	1026.7	0	0.000	0.0
20100122 19:00	-1.6	-1.6	-1.6	85	-3.7	5	8	68	0.0	1026.7	0	0.000	0.0
20100122 19:05	-1.6	-1.6	-1.6	85	-3.8	3	8	68	0.0	1026.7	0	0.000	0.0
20100122 19:10	-1.6	-1.6	-1.6	85	-3.8	3	5	68	0.0	1026.8	0	0.000	0.0
20100122 19:15	-1.6	-1.6	-1.6	85	-3.8	3	8	68	0.0	1026.9	0	0.000	0.0
20100122 19:20	-1.7	-1.7	-1.7	85	-3.9	5	8	68	0.0	1026.9	0	0.000	0.0
20100122 19:25	-1.6	-1.6	-1.6	85	-3.8	3	6	68	0.0	1026.9	0	0.000	0.0
20100122 19:30	-1.6	-1.6	-1.6	85	-3.8	3	6	68	0.0	1026.9	0	0.000	0.0
20100122 19:35	-1.7	-1.7	-1.7	85	-3.9	3	6	68	0.0	1026.9	0	0.000	0.0
20100122 19:40	-1.7	-1.7	-1.7	85	-3.9	3	8	68	0.0	1026.9	0	0.000	0.0
20100122 19:45	-1.7	-1.7	-1.7	85	-3.9	5	10	45	0.0	1026.9	0	0.000	0.0
20100122 19:50	-1.7	-1.7	-1.7	86	-3.8	5	6	45	0.0	1026.8	0	0.000	0.0
20100122 19:55	-1.8	-1.8	-1.8	86	-3.8	3	6	45	0.0	1026.7	0	0.000	0.0
20100122 20:00	-1.8	-1.8	-1.8	86	-3.8	3	8	45	0.0	1026.7	0	0.000	0.0
20100122 20:05	-1.8	-1.8	-1.8	86	-3.8	5	6	45	0.0	1026.7	0	0.000	0.0
20100122 20:10	-1.8	-1.8	-1.8	86	-3.9	5	10	45	0.0	1026.8	0	0.000	0.0
20100122 20:15	-1.8	-1.8	-1.8	86	-3.9	5	10	45	0.0	1026.7	0	0.000	0.0
20100122 20:20	-1.8	-1.8	-1.8	86	-3.9	5	8	45	0.0	1026.7	0	0.000	0.0
20100122 20:25	-1.8	-1.8	-1.8	86	-3.9	5	6	45	0.0	1026.6	0	0.000	0.0
20100122 20:30	-1.8	-1.8	-1.8	86	-3.9	3	6	45	0.0	1026.6	0	0.000	0.0
20100122 20:35	-1.8	-1.8	-1.8	86	-3.9	3	6	45	0.0	1026.6	0	0.000	0.0
20100122 20:40	-1.8	-1.8	-1.8	86	-3.9	3	6	45	0.0	1026.7	0	0.000	0.0
20100122 20:45	-1.9	-1.9	-1.9	86	-3.9	3	6	45	0.0	1026.6	0	0.000	0.0
20100122 20:50	-1.9	-1.9	-1.9	86	-3.9	3	6	45	0.0	1026.5	0	0.000	0.0
20100122 20:55	-1.9	-1.9	-1.9	86	-3.9	3	6	45	0.0	1026.6	0	0.000	0.0
20100122 21:00	-1.9	-1.9	-1.9	86	-3.9	2	6	45	0.0	1026.5	0	0.000	0.0
20100122 21:05	-1.9	-1.9	-1.9	86	-3.9	2	6	45	0.0	1026.5	0	0.000	0.0
20100122 21:10	-1.9	-1.9	-1.9	86	-3.9	5	8	45	0.0	914.7	0	0.000	0.0
20100122 21:15	-1.9	-1.9	-1.9	86	-4.0	3	8	45	0.0	886.8	0	0.000	0.0
20100122 21:20	-1.9	-1.9	-1.9	86	-4.0	5	11	68	0.0	886.8	0	0.000	0.0
20100122 21:25	-1.9	-1.9	-1.9	86	-4.0	3	6	68	0.0	886.8	0	0.000	0.0
20100122 21:30	-2.0	-2.0	-2.0	86	-4.0	3	8	68	0.0	886.8	0	0.000	0.0
20100122 21:35	-2.0	-2.0	-2.0	86	-4.0	3	8	68	0.0	886.8	0	0.000	0.0
20100122 21:40	-2.0	-2.0	-2.0	86	-4.0	3	6	68	0.0	886.8	0	0.000	0.0
20100122 21:45	-2.0	-2.0	-2.0	86	-4.0	5	8	68	0.0	886.8	0	0.000	0.0
20100122 21:50	-2.0	-2.0	-2.0	86	-4.0	3	6	68	0.0	886.8	0	0.000	0.0
20100122 21:55	-2.0	-2.0	-2.0	86	-4.0	3	5	68	0.0	886.8	0	0.000	0.0
20100122 22:00	-2.0	-2.0	-2.0	86	-4.0	3	6	68	0.0	886.8	0	0.000	0.0
20100122 22:05	-2.0	-2.0	-2.0	86	-4.0	3	6	68	0.0	886.8	0	0.000	0.0
20100122 22:10	-2.0	-2.0	-2.0	86	-4.0	3	8	68	0.0	886.8	0	0.000	0.0
20100122 22:15	-2.0	-2.0	-2.0	86	-4.0	2	5	68	0.0	886.8	0	0.000	0.0
20100122 22:20	-1.9	-1.9	-1.9	86	-4.0	2	5	68	0.0	886.8	0	0.000	0.0
20100122 22:25	-1.9	-1.9	-1.9	86	-4.0	5	8	68	0.0	886.8	0	0.000	0.0
20100122 22:30	-1.9	-1.9	-1.9	87	-3.8	3	6	68	0.0	886.8	0	0.000	0.0
20100122 22:35	-1.9	-1.9	-1.9	86	-4.0	2	5	68	0.0	886.8	0	0.000	0.0
20100122 22:40	-2.0	-2.0	-2.0	86	-4.0	3	5	68	0.0	886.8	0	0.000	0.0
20100122 22:45	-2.0	-2.0	-2.0	86	-4.0	2	5	68	0.0	886.8	0	0.000	0.0
20100122 22:50	-1.9	-1.9	-1.9	86	-4.0	2	3	68	0.0	886.8	0	0.000	0.0
20100122 22:55	-1.9	-1.9	-1.9	86	-4.0	2	5	68	0.0	886.8	0	0.000	0.0
20100122 23:00	-1.9	-1.9	-1.9	86	-4.0	3	6	68	0.0	886.8	0	0.000	0.0
20100122 23:05	-1.9	-1.9	-1.9	86	-3.9	3	10	112	0.0	886.8	0	0.000	0.0
20100122 23:10	-1.9	-1.9	-1.9	85	-4.1	3	6	112	0.0	803.1	0	0.000	0.0
20100122 23:15	-1.8	-1.8	-1.8	85	-4.0	2	6	112	0.0	914.7	0	0.000	0.0
20100122 23:20	-1.8	-1.8	-1.8	85	-4.0	2	6	112	0.0	914.7	0	0.000	0.0
20100122 23:25	-1.9	-1.9	-1.9	85	-4.1	2	3	112	0.0	1026.3	0	0.000	0.0
20100122 23:30	-1.9	-1.9	-1.9	85	-4.1	2	6	90	0.0	1026.3	0	0.000	0.0
20100122 23:35	-1.9	-1.9	-1.9	85	-4.1	2	5	90	0.0	1026.3	0	0.000	0.0
20100122 23:40	-1.9	-1.9	-1.9	85	-4.1	2	5	90	0.0	1026.3	0	0.000	0.0
20100122 23:45	-1.8	-1.8	-1.8	85	-4.0	2	5	90	0.0	1026.3	0	0.000	0.0
20100122 23:50	-1.8	-1.8	-1.8	85	-4.0	5	8	135	0.0	1026.2	0	0.000	0.0
20100122 23:55	-1.9	-1.9	-1.9	84	-4.2	3	8	135	0.0	998.3	0	0.000	0.0



Please note the license to use and transfer of this data:
http://creativecommons.org/licenses/by-nc-sa/3.0/deed.en

Bitte beachten sie die Lizenz zur Verwertung und Weitergabe der Daten:
http://creativecommons.org/licenses/by-nc-sa/3.0/deed.de

zurück zur Übersicht der Archivdaten (Monats und Tagesdaten)

Cookies helfen bei der Bereitstellung von Inhalten. Durch die Nutzung dieser Seiten erklärst du dich damit einverstanden, dass Cookies auf deinem Rechner gespeichert werden. Weitere Information